sensor_id;sensor_type;location;lat;lon;timestamp;P1;durP1;ratioP1;P2;durP2;ratioP2
54177;SDS011;40085;53.004;6.770;2022-07-01T00:00:36;0.75;;;0.75;;
54177;SDS011;40085;53.004;6.770;2022-07-01T00:03:02;1.00;;;0.47;;
54177;SDS011;40085;53.004;6.770;2022-07-01T00:05:29;0.70;;;0.40;;
54177;SDS011;40085;53.004;6.770;2022-07-01T00:07:55;0.85;;;0.52;;
54177;SDS011;40085;53.004;6.770;2022-07-01T00:10:21;2.58;;;0.40;;
54177;SDS011;40085;53.004;6.770;2022-07-01T00:12:47;0.60;;;0.52;;
54177;SDS011;40085;53.004;6.770;2022-07-01T00:15:12;0.20;;;0.20;;
54177;SDS011;40085;53.004;6.770;2022-07-01T00:17:38;1.15;;;0.55;;
54177;SDS011;40085;53.004;6.770;2022-07-01T00:20:05;1.70;;;0.70;;
54177;SDS011;40085;53.004;6.770;2022-07-01T00:22:32;0.68;;;0.50;;
54177;SDS011;40085;53.004;6.770;2022-07-01T00:24:59;0.80;;;0.47;;
54177;SDS011;40085;53.004;6.770;2022-07-01T00:27:24;0.80;;;0.30;;
54177;SDS011;40085;53.004;6.770;2022-07-01T00:29:50;0.43;;;0.43;;
54177;SDS011;40085;53.004;6.770;2022-07-01T00:32:16;0.60;;;0.35;;
54177;SDS011;40085;53.004;6.770;2022-07-01T00:34:42;0.90;;;0.40;;
54177;SDS011;40085;53.004;6.770;2022-07-01T00:37:07;1.30;;;0.50;;
54177;SDS011;40085;53.004;6.770;2022-07-01T00:39:33;1.00;;;0.40;;
54177;SDS011;40085;53.004;6.770;2022-07-01T00:42:01;0.63;;;0.47;;
54177;SDS011;40085;53.004;6.770;2022-07-01T00:44:28;0.30;;;0.30;;
54177;SDS011;40085;53.004;6.770;2022-07-01T00:46:55;0.47;;;0.40;;
54177;SDS011;40085;53.004;6.770;2022-07-01T00:49:22;0.50;;;0.43;;
54177;SDS011;40085;53.004;6.770;2022-07-01T00:51:48;0.40;;;0.40;;
54177;SDS011;40085;53.004;6.770;2022-07-01T00:54:14;2.70;;;0.43;;
54177;SDS011;40085;53.004;6.770;2022-07-01T00:56:41;0.75;;;0.57;;
54177;SDS011;40085;53.004;6.770;2022-07-01T00:59:06;0.75;;;0.50;;
54177;SDS011;40085;53.004;6.770;2022-07-01T01:01:32;1.63;;;0.80;;
54177;SDS011;40085;53.004;6.770;2022-07-01T01:03:58;0.85;;;0.52;;
54177;SDS011;40085;53.004;6.770;2022-07-01T01:06:24;2.60;;;0.98;;
54177;SDS011;40085;53.004;6.770;2022-07-01T01:08:49;0.80;;;0.57;;
54177;SDS011;40085;53.004;6.770;2022-07-01T01:11:16;0.40;;;0.40;;
54177;SDS011;40085;53.004;6.770;2022-07-01T01:13:42;0.85;;;0.63;;
54177;SDS011;40085;53.004;6.770;2022-07-01T01:16:14;0.68;;;0.50;;
54177;SDS011;40085;53.004;6.770;2022-07-01T01:18:42;1.00;;;0.43;;
54177;SDS011;40085;53.004;6.770;2022-07-01T01:21:07;1.08;;;0.60;;
54177;SDS011;40085;53.004;6.770;2022-07-01T01:23:33;0.30;;;0.30;;
54177;SDS011;40085;53.004;6.770;2022-07-01T01:25:59;1.45;;;0.40;;
54177;SDS011;40085;53.004;6.770;2022-07-01T01:28:27;3.70;;;0.52;;
54177;SDS011;40085;53.004;6.770;2022-07-01T01:30:53;0.43;;;0.40;;
54177;SDS011;40085;53.004;6.770;2022-07-01T01:33:19;0.40;;;0.40;;
54177;SDS011;40085;53.004;6.770;2022-07-01T01:35:45;1.15;;;0.50;;
54177;SDS011;40085;53.004;6.770;2022-07-01T01:38:11;2.15;;;0.30;;
54177;SDS011;40085;53.004;6.770;2022-07-01T01:40:37;0.28;;;0.28;;
54177;SDS011;40085;53.004;6.770;2022-07-01T01:43:02;0.43;;;0.30;;
54177;SDS011;40085;53.004;6.770;2022-07-01T01:45:28;1.25;;;0.30;;
54177;SDS011;40085;53.004;6.770;2022-07-01T01:47:54;0.30;;;0.30;;
54177;SDS011;40085;53.004;6.770;2022-07-01T01:50:19;0.20;;;0.20;;
54177;SDS011;40085;53.004;6.770;2022-07-01T01:52:45;2.17;;;0.50;;
54177;SDS011;40085;53.004;6.770;2022-07-01T01:55:11;0.17;;;0.17;;
54177;SDS011;40085;53.004;6.770;2022-07-01T01:57:38;1.38;;;0.50;;
54177;SDS011;40085;53.004;6.770;2022-07-01T02:00:07;0.30;;;0.30;;
54177;SDS011;40085;53.004;6.770;2022-07-01T02:02:33;0.40;;;0.40;;
54177;SDS011;40085;53.004;6.770;2022-07-01T02:05:02;0.22;;;0.20;;
54177;SDS011;40085;53.004;6.770;2022-07-01T02:07:29;0.30;;;0.30;;
54177;SDS011;40085;53.004;6.770;2022-07-01T02:09:55;0.47;;;0.40;;
54177;SDS011;40085;53.004;6.770;2022-07-01T02:12:20;0.30;;;0.30;;
54177;SDS011;40085;53.004;6.770;2022-07-01T02:14:46;2.65;;;0.47;;
54177;SDS011;40085;53.004;6.770;2022-07-01T02:17:11;0.63;;;0.50;;
54177;SDS011;40085;53.004;6.770;2022-07-01T02:19:37;0.52;;;0.43;;
54177;SDS011;40085;53.004;6.770;2022-07-01T02:22:03;0.65;;;0.63;;
54177;SDS011;40085;53.004;6.770;2022-07-01T02:24:28;0.60;;;0.30;;
54177;SDS011;40085;53.004;6.770;2022-07-01T02:26:54;0.68;;;0.60;;
54177;SDS011;40085;53.004;6.770;2022-07-01T02:29:20;0.65;;;0.50;;
54177;SDS011;40085;53.004;6.770;2022-07-01T02:31:45;0.93;;;0.55;;
54177;SDS011;40085;53.004;6.770;2022-07-01T02:34:11;0.50;;;0.43;;
54177;SDS011;40085;53.004;6.770;2022-07-01T02:36:37;1.10;;;0.77;;
54177;SDS011;40085;53.004;6.770;2022-07-01T02:39:02;1.60;;;0.80;;
54177;SDS011;40085;53.004;6.770;2022-07-01T02:41:28;1.92;;;0.52;;
54177;SDS011;40085;53.004;6.770;2022-07-01T02:43:54;0.60;;;0.57;;
54177;SDS011;40085;53.004;6.770;2022-07-01T02:46:19;0.52;;;0.50;;
54177;SDS011;40085;53.004;6.770;2022-07-01T02:48:45;0.60;;;0.50;;
54177;SDS011;40085;53.004;6.770;2022-07-01T02:51:11;0.90;;;0.50;;
54177;SDS011;40085;53.004;6.770;2022-07-01T02:53:36;1.55;;;0.65;;
54177;SDS011;40085;53.004;6.770;2022-07-01T02:56:02;3.25;;;0.70;;
54177;SDS011;40085;53.004;6.770;2022-07-01T02:58:28;0.30;;;0.30;;
54177;SDS011;40085;53.004;6.770;2022-07-01T03:00:53;0.85;;;0.60;;
54177;SDS011;40085;53.004;6.770;2022-07-01T03:03:19;1.15;;;0.75;;
54177;SDS011;40085;53.004;6.770;2022-07-01T03:05:45;0.60;;;0.57;;
54177;SDS011;40085;53.004;6.770;2022-07-01T03:08:13;1.15;;;0.80;;
54177;SDS011;40085;53.004;6.770;2022-07-01T03:10:38;1.10;;;0.68;;
54177;SDS011;40085;53.004;6.770;2022-07-01T03:13:04;0.68;;;0.68;;
54177;SDS011;40085;53.004;6.770;2022-07-01T03:15:30;0.65;;;0.60;;
54177;SDS011;40085;53.004;6.770;2022-07-01T03:17:55;2.50;;;0.85;;
54177;SDS011;40085;53.004;6.770;2022-07-01T03:20:21;0.73;;;0.57;;
54177;SDS011;40085;53.004;6.770;2022-07-01T03:22:47;0.65;;;0.50;;
54177;SDS011;40085;53.004;6.770;2022-07-01T03:25:13;1.00;;;0.68;;
54177;SDS011;40085;53.004;6.770;2022-07-01T03:27:38;2.42;;;0.80;;
54177;SDS011;40085;53.004;6.770;2022-07-01T03:30:10;1.35;;;0.80;;
54177;SDS011;40085;53.004;6.770;2022-07-01T03:32:36;1.48;;;0.73;;
54177;SDS011;40085;53.004;6.770;2022-07-01T03:35:02;1.70;;;0.80;;
54177;SDS011;40085;53.004;6.770;2022-07-01T03:37:49;0.90;;;0.70;;
54177;SDS011;40085;53.004;6.770;2022-07-01T03:40:14;1.23;;;0.85;;
54177;SDS011;40085;53.004;6.770;2022-07-01T03:42:40;2.58;;;0.88;;
54177;SDS011;40085;53.004;6.770;2022-07-01T03:45:06;1.52;;;0.82;;
54177;SDS011;40085;53.004;6.770;2022-07-01T03:47:32;0.98;;;0.70;;
54177;SDS011;40085;53.004;6.770;2022-07-01T03:49:58;1.92;;;1.00;;
54177;SDS011;40085;53.004;6.770;2022-07-01T03:52:23;2.08;;;0.98;;
54177;SDS011;40085;53.004;6.770;2022-07-01T03:54:49;2.50;;;1.48;;
54177;SDS011;40085;53.004;6.770;2022-07-01T03:57:14;1.83;;;1.20;;
54177;SDS011;40085;53.004;6.770;2022-07-01T03:59:40;2.58;;;1.48;;
54177;SDS011;40085;53.004;6.770;2022-07-01T04:02:06;4.65;;;1.35;;
54177;SDS011;40085;53.004;6.770;2022-07-01T04:04:33;3.10;;;1.65;;
54177;SDS011;40085;53.004;6.770;2022-07-01T04:07:01;2.50;;;1.77;;
54177;SDS011;40085;53.004;6.770;2022-07-01T04:09:29;3.50;;;2.00;;
54177;SDS011;40085;53.004;6.770;2022-07-01T04:11:55;3.35;;;1.63;;
54177;SDS011;40085;53.004;6.770;2022-07-01T04:14:22;3.28;;;2.00;;
54177;SDS011;40085;53.004;6.770;2022-07-01T04:16:49;3.78;;;2.42;;
54177;SDS011;40085;53.004;6.770;2022-07-01T04:19:15;3.88;;;2.45;;
54177;SDS011;40085;53.004;6.770;2022-07-01T04:21:41;3.97;;;2.28;;
54177;SDS011;40085;53.004;6.770;2022-07-01T04:24:26;4.35;;;2.70;;
54177;SDS011;40085;53.004;6.770;2022-07-01T04:26:54;4.25;;;2.80;;
54177;SDS011;40085;53.004;6.770;2022-07-01T04:29:19;4.72;;;2.78;;
54177;SDS011;40085;53.004;6.770;2022-07-01T04:31:45;5.53;;;2.85;;
54177;SDS011;40085;53.004;6.770;2022-07-01T04:34:12;4.32;;;3.00;;
54177;SDS011;40085;53.004;6.770;2022-07-01T04:36:38;5.18;;;3.13;;
54177;SDS011;40085;53.004;6.770;2022-07-01T04:39:04;5.57;;;3.25;;
54177;SDS011;40085;53.004;6.770;2022-07-01T04:41:30;12.23;;;4.15;;
54177;SDS011;40085;53.004;6.770;2022-07-01T04:44:15;8.50;;;4.30;;
54177;SDS011;40085;53.004;6.770;2022-07-01T04:46:42;6.50;;;4.00;;
54177;SDS011;40085;53.004;6.770;2022-07-01T04:49:08;5.43;;;3.85;;
54177;SDS011;40085;53.004;6.770;2022-07-01T04:51:34;9.48;;;5.20;;
54177;SDS011;40085;53.004;6.770;2022-07-01T04:54:03;8.60;;;4.30;;
54177;SDS011;40085;53.004;6.770;2022-07-01T04:56:31;9.30;;;4.53;;
54177;SDS011;40085;53.004;6.770;2022-07-01T04:58:58;13.27;;;5.85;;
54177;SDS011;40085;53.004;6.770;2022-07-01T05:01:24;9.68;;;5.43;;
54177;SDS011;40085;53.004;6.770;2022-07-01T05:03:50;11.65;;;6.78;;
54177;SDS011;40085;53.004;6.770;2022-07-01T05:06:16;12.77;;;5.88;;
54177;SDS011;40085;53.004;6.770;2022-07-01T05:08:42;9.93;;;5.68;;
54177;SDS011;40085;53.004;6.770;2022-07-01T05:11:08;10.98;;;6.55;;
54177;SDS011;40085;53.004;6.770;2022-07-01T05:13:33;10.10;;;5.72;;
54177;SDS011;40085;53.004;6.770;2022-07-01T05:15:59;13.05;;;6.93;;
54177;SDS011;40085;53.004;6.770;2022-07-01T05:18:25;12.10;;;6.60;;
54177;SDS011;40085;53.004;6.770;2022-07-01T05:21:10;12.43;;;6.38;;
54177;SDS011;40085;53.004;6.770;2022-07-01T05:23:54;9.07;;;5.53;;
54177;SDS011;40085;53.004;6.770;2022-07-01T05:26:20;10.75;;;6.50;;
54177;SDS011;40085;53.004;6.770;2022-07-01T05:28:46;15.57;;;7.50;;
54177;SDS011;40085;53.004;6.770;2022-07-01T05:31:12;11.82;;;6.38;;
54177;SDS011;40085;53.004;6.770;2022-07-01T05:33:37;10.50;;;6.75;;
54177;SDS011;40085;53.004;6.770;2022-07-01T05:36:03;10.85;;;6.78;;
54177;SDS011;40085;53.004;6.770;2022-07-01T05:38:29;13.40;;;6.68;;
54177;SDS011;40085;53.004;6.770;2022-07-01T05:40:55;11.32;;;6.35;;
54177;SDS011;40085;53.004;6.770;2022-07-01T05:43:21;11.60;;;7.18;;
54177;SDS011;40085;53.004;6.770;2022-07-01T05:45:47;14.30;;;7.43;;
54177;SDS011;40085;53.004;6.770;2022-07-01T05:48:13;12.20;;;7.22;;
54177;SDS011;40085;53.004;6.770;2022-07-01T05:50:41;12.93;;;7.32;;
54177;SDS011;40085;53.004;6.770;2022-07-01T05:53:08;14.43;;;7.03;;
54177;SDS011;40085;53.004;6.770;2022-07-01T05:55:34;15.27;;;7.85;;
54177;SDS011;40085;53.004;6.770;2022-07-01T05:57:59;12.55;;;7.25;;
54177;SDS011;40085;53.004;6.770;2022-07-01T06:00:26;12.57;;;7.72;;
54177;SDS011;40085;53.004;6.770;2022-07-01T06:02:52;15.10;;;7.32;;
54177;SDS011;40085;53.004;6.770;2022-07-01T06:05:19;12.32;;;7.07;;
54177;SDS011;40085;53.004;6.770;2022-07-01T06:07:44;13.45;;;6.93;;
54177;SDS011;40085;53.004;6.770;2022-07-01T06:10:10;12.85;;;7.05;;
54177;SDS011;40085;53.004;6.770;2022-07-01T06:12:37;14.45;;;8.32;;
54177;SDS011;40085;53.004;6.770;2022-07-01T06:15:04;12.85;;;7.35;;
54177;SDS011;40085;53.004;6.770;2022-07-01T06:17:34;17.63;;;7.88;;
54177;SDS011;40085;53.004;6.770;2022-07-01T06:20:00;14.55;;;7.60;;
54177;SDS011;40085;53.004;6.770;2022-07-01T06:22:26;12.40;;;7.28;;
54177;SDS011;40085;53.004;6.770;2022-07-01T06:24:52;13.23;;;7.43;;
54177;SDS011;40085;53.004;6.770;2022-07-01T06:27:17;14.82;;;7.80;;
54177;SDS011;40085;53.004;6.770;2022-07-01T06:29:43;11.50;;;6.97;;
54177;SDS011;40085;53.004;6.770;2022-07-01T06:32:08;11.50;;;6.80;;
54177;SDS011;40085;53.004;6.770;2022-07-01T06:34:34;13.38;;;8.00;;
54177;SDS011;40085;53.004;6.770;2022-07-01T06:37:00;13.75;;;7.90;;
54177;SDS011;40085;53.004;6.770;2022-07-01T06:39:27;9.90;;;6.85;;
54177;SDS011;40085;53.004;6.770;2022-07-01T06:41:53;13.95;;;7.25;;
54177;SDS011;40085;53.004;6.770;2022-07-01T06:44:20;9.80;;;6.90;;
54177;SDS011;40085;53.004;6.770;2022-07-01T06:46:46;11.88;;;8.10;;
54177;SDS011;40085;53.004;6.770;2022-07-01T06:49:12;14.38;;;8.10;;
54177;SDS011;40085;53.004;6.770;2022-07-01T06:51:38;14.13;;;7.15;;
54177;SDS011;40085;53.004;6.770;2022-07-01T06:54:04;12.88;;;7.57;;
54177;SDS011;40085;53.004;6.770;2022-07-01T06:56:30;12.15;;;7.75;;
54177;SDS011;40085;53.004;6.770;2022-07-01T06:58:55;11.88;;;7.80;;
54177;SDS011;40085;53.004;6.770;2022-07-01T07:01:21;11.73;;;7.35;;
54177;SDS011;40085;53.004;6.770;2022-07-01T07:03:47;12.20;;;7.60;;
54177;SDS011;40085;53.004;6.770;2022-07-01T07:06:13;10.18;;;7.18;;
54177;SDS011;40085;53.004;6.770;2022-07-01T07:08:39;12.10;;;7.43;;
54177;SDS011;40085;53.004;6.770;2022-07-01T07:11:04;10.93;;;7.28;;
54177;SDS011;40085;53.004;6.770;2022-07-01T07:13:32;13.15;;;7.65;;
54177;SDS011;40085;53.004;6.770;2022-07-01T07:15:57;10.68;;;7.13;;
54177;SDS011;40085;53.004;6.770;2022-07-01T07:18:23;14.45;;;7.70;;
54177;SDS011;40085;53.004;6.770;2022-07-01T07:20:49;16.10;;;9.23;;
54177;SDS011;40085;53.004;6.770;2022-07-01T07:23:14;12.20;;;7.72;;
54177;SDS011;40085;53.004;6.770;2022-07-01T07:25:41;11.05;;;7.30;;
54177;SDS011;40085;53.004;6.770;2022-07-01T07:28:07;13.93;;;8.45;;
54177;SDS011;40085;53.004;6.770;2022-07-01T07:30:33;12.38;;;7.75;;
54177;SDS011;40085;53.004;6.770;2022-07-01T07:32:58;12.48;;;8.38;;
54177;SDS011;40085;53.004;6.770;2022-07-01T07:35:24;10.25;;;7.35;;
54177;SDS011;40085;53.004;6.770;2022-07-01T07:37:50;12.23;;;7.03;;
54177;SDS011;40085;53.004;6.770;2022-07-01T07:40:15;10.82;;;6.75;;
54177;SDS011;40085;53.004;6.770;2022-07-01T07:42:44;11.95;;;8.23;;
54177;SDS011;40085;53.004;6.770;2022-07-01T07:45:12;10.27;;;6.97;;
54177;SDS011;40085;53.004;6.770;2022-07-01T07:47:41;12.15;;;7.30;;
54177;SDS011;40085;53.004;6.770;2022-07-01T07:50:09;10.30;;;7.68;;
54177;SDS011;40085;53.004;6.770;2022-07-01T07:52:35;14.65;;;8.65;;
54177;SDS011;40085;53.004;6.770;2022-07-01T07:55:00;11.40;;;7.15;;
54177;SDS011;40085;53.004;6.770;2022-07-01T07:57:27;13.27;;;7.82;;
54177;SDS011;40085;53.004;6.770;2022-07-01T07:59:52;12.30;;;7.32;;
54177;SDS011;40085;53.004;6.770;2022-07-01T08:02:18;12.38;;;7.63;;
54177;SDS011;40085;53.004;6.770;2022-07-01T08:04:44;14.15;;;7.47;;
54177;SDS011;40085;53.004;6.770;2022-07-01T08:07:09;11.32;;;8.00;;
54177;SDS011;40085;53.004;6.770;2022-07-01T08:09:35;15.30;;;7.43;;
54177;SDS011;40085;53.004;6.770;2022-07-01T08:12:01;13.88;;;7.50;;
54177;SDS011;40085;53.004;6.770;2022-07-01T08:14:27;13.00;;;6.90;;
54177;SDS011;40085;53.004;6.770;2022-07-01T08:16:53;10.85;;;6.93;;
54177;SDS011;40085;53.004;6.770;2022-07-01T08:19:19;10.32;;;6.78;;
54177;SDS011;40085;53.004;6.770;2022-07-01T08:21:45;12.48;;;7.32;;
54177;SDS011;40085;53.004;6.770;2022-07-01T08:24:10;8.85;;;6.28;;
54177;SDS011;40085;53.004;6.770;2022-07-01T08:26:36;14.10;;;6.93;;
54177;SDS011;40085;53.004;6.770;2022-07-01T08:29:02;15.25;;;6.68;;
54177;SDS011;40085;53.004;6.770;2022-07-01T08:31:28;10.40;;;6.47;;
54177;SDS011;40085;53.004;6.770;2022-07-01T08:33:54;8.50;;;5.70;;
54177;SDS011;40085;53.004;6.770;2022-07-01T08:36:20;10.38;;;5.90;;
54177;SDS011;40085;53.004;6.770;2022-07-01T08:38:46;10.23;;;7.13;;
54177;SDS011;40085;53.004;6.770;2022-07-01T08:41:14;11.27;;;6.45;;
54177;SDS011;40085;53.004;6.770;2022-07-01T08:43:40;10.20;;;6.43;;
54177;SDS011;40085;53.004;6.770;2022-07-01T08:46:06;8.25;;;5.63;;
54177;SDS011;40085;53.004;6.770;2022-07-01T08:48:33;9.90;;;5.53;;
54177;SDS011;40085;53.004;6.770;2022-07-01T08:50:59;8.18;;;5.88;;
54177;SDS011;40085;53.004;6.770;2022-07-01T08:53:29;9.18;;;5.43;;
54177;SDS011;40085;53.004;6.770;2022-07-01T08:55:56;13.25;;;6.13;;
54177;SDS011;40085;53.004;6.770;2022-07-01T08:58:40;11.20;;;5.25;;
54177;SDS011;40085;53.004;6.770;2022-07-01T09:03:38;7.30;;;4.85;;
54177;SDS011;40085;53.004;6.770;2022-07-01T09:06:03;8.50;;;5.35;;
54177;SDS011;40085;53.004;6.770;2022-07-01T09:08:40;16.17;;;4.93;;
54177;SDS011;40085;53.004;6.770;2022-07-01T09:11:13;6.20;;;4.10;;
54177;SDS011;40085;53.004;6.770;2022-07-01T09:13:44;5.75;;;4.32;;
54177;SDS011;40085;53.004;6.770;2022-07-01T09:16:29;5.70;;;3.78;;
54177;SDS011;40085;53.004;6.770;2022-07-01T09:19:01;6.25;;;3.65;;
54177;SDS011;40085;53.004;6.770;2022-07-01T09:21:28;8.02;;;3.63;;
54177;SDS011;40085;53.004;6.770;2022-07-01T09:23:56;4.75;;;3.10;;
54177;SDS011;40085;53.004;6.770;2022-07-01T09:26:50;6.05;;;3.08;;
54177;SDS011;40085;53.004;6.770;2022-07-01T09:29:25;6.88;;;3.42;;
54177;SDS011;40085;53.004;6.770;2022-07-01T09:31:52;5.25;;;3.47;;
54177;SDS011;40085;53.004;6.770;2022-07-01T09:34:18;5.20;;;3.13;;
54177;SDS011;40085;53.004;6.770;2022-07-01T09:36:51;4.88;;;3.08;;
54177;SDS011;40085;53.004;6.770;2022-07-01T09:39:18;7.75;;;3.85;;
54177;SDS011;40085;53.004;6.770;2022-07-01T09:41:43;5.38;;;3.38;;
54177;SDS011;40085;53.004;6.770;2022-07-01T09:44:09;5.82;;;3.08;;
54177;SDS011;40085;53.004;6.770;2022-07-01T09:46:35;5.97;;;3.55;;
54177;SDS011;40085;53.004;6.770;2022-07-01T09:49:01;5.60;;;3.08;;
54177;SDS011;40085;53.004;6.770;2022-07-01T09:51:27;4.45;;;3.17;;
54177;SDS011;40085;53.004;6.770;2022-07-01T09:53:55;3.92;;;3.15;;
54177;SDS011;40085;53.004;6.770;2022-07-01T09:56:25;5.68;;;2.92;;
54177;SDS011;40085;53.004;6.770;2022-07-01T09:58:50;4.65;;;3.22;;
54177;SDS011;40085;53.004;6.770;2022-07-01T10:01:16;5.65;;;2.70;;
54177;SDS011;40085;53.004;6.770;2022-07-01T10:03:42;4.93;;;2.78;;
54177;SDS011;40085;53.004;6.770;2022-07-01T10:09:11;3.50;;;2.70;;
54177;SDS011;40085;53.004;6.770;2022-07-01T10:11:56;3.40;;;2.33;;
54177;SDS011;40085;53.004;6.770;2022-07-01T10:14:31;4.88;;;2.97;;
54177;SDS011;40085;53.004;6.770;2022-07-01T10:17:01;3.30;;;2.37;;
54177;SDS011;40085;53.004;6.770;2022-07-01T10:19:27;6.78;;;3.28;;
54177;SDS011;40085;53.004;6.770;2022-07-01T10:21:56;3.42;;;2.55;;
54177;SDS011;40085;53.004;6.770;2022-07-01T10:24:42;5.07;;;3.17;;
54177;SDS011;40085;53.004;6.770;2022-07-01T10:27:09;4.90;;;2.67;;
54177;SDS011;40085;53.004;6.770;2022-07-01T10:29:45;4.50;;;2.72;;
54177;SDS011;40085;53.004;6.770;2022-07-01T10:34:46;5.05;;;2.63;;
54177;SDS011;40085;53.004;6.770;2022-07-01T10:37:12;3.67;;;2.17;;
54177;SDS011;40085;53.004;6.770;2022-07-01T10:42:21;5.13;;;2.70;;
54177;SDS011;40085;53.004;6.770;2022-07-01T10:45:02;3.90;;;2.78;;
54177;SDS011;40085;53.004;6.770;2022-07-01T10:47:30;5.00;;;2.35;;
54177;SDS011;40085;53.004;6.770;2022-07-01T10:49:57;4.22;;;2.38;;
54177;SDS011;40085;53.004;6.770;2022-07-01T10:52:24;2.72;;;2.15;;
54177;SDS011;40085;53.004;6.770;2022-07-01T10:54:53;2.78;;;1.98;;
54177;SDS011;40085;53.004;6.770;2022-07-01T10:57:31;7.13;;;2.03;;
54177;SDS011;40085;53.004;6.770;2022-07-01T11:02:33;4.15;;;2.22;;
54177;SDS011;40085;53.004;6.770;2022-07-01T11:05:04;2.85;;;1.70;;
54177;SDS011;40085;53.004;6.770;2022-07-01T11:07:35;3.70;;;1.98;;
54177;SDS011;40085;53.004;6.770;2022-07-01T11:10:04;2.90;;;1.88;;
54177;SDS011;40085;53.004;6.770;2022-07-01T11:12:31;2.25;;;1.75;;
54177;SDS011;40085;53.004;6.770;2022-07-01T11:14:58;3.92;;;1.85;;
54177;SDS011;40085;53.004;6.770;2022-07-01T11:17:26;2.03;;;1.40;;
54177;SDS011;40085;53.004;6.770;2022-07-01T11:19:54;3.97;;;2.08;;
54177;SDS011;40085;53.004;6.770;2022-07-01T11:22:26;4.43;;;2.08;;
54177;SDS011;40085;53.004;6.770;2022-07-01T11:24:54;4.20;;;2.22;;
54177;SDS011;40085;53.004;6.770;2022-07-01T11:29:53;3.83;;;1.95;;
54177;SDS011;40085;53.004;6.770;2022-07-01T11:34:57;5.82;;;1.88;;
54177;SDS011;40085;53.004;6.770;2022-07-01T11:37:28;2.63;;;1.50;;
54177;SDS011;40085;53.004;6.770;2022-07-01T11:40:15;4.00;;;1.63;;
54177;SDS011;40085;53.004;6.770;2022-07-01T11:42:43;2.00;;;1.33;;
54177;SDS011;40085;53.004;6.770;2022-07-01T11:45:09;3.80;;;1.90;;
54177;SDS011;40085;53.004;6.770;2022-07-01T11:47:51;2.13;;;1.70;;
54177;SDS011;40085;53.004;6.770;2022-07-01T11:50:17;2.70;;;1.42;;
54177;SDS011;40085;53.004;6.770;2022-07-01T11:52:43;3.13;;;1.38;;
54177;SDS011;40085;53.004;6.770;2022-07-01T11:55:08;3.38;;;1.30;;
54177;SDS011;40085;53.004;6.770;2022-07-01T11:57:34;1.60;;;1.20;;
54177;SDS011;40085;53.004;6.770;2022-07-01T12:00:07;2.35;;;1.33;;
54177;SDS011;40085;53.004;6.770;2022-07-01T12:02:35;2.25;;;1.05;;
54177;SDS011;40085;53.004;6.770;2022-07-01T12:05:01;1.92;;;1.38;;
54177;SDS011;40085;53.004;6.770;2022-07-01T12:07:28;1.75;;;1.15;;
54177;SDS011;40085;53.004;6.770;2022-07-01T12:09:54;0.68;;;0.65;;
54177;SDS011;40085;53.004;6.770;2022-07-01T12:12:21;1.27;;;0.85;;
54177;SDS011;40085;53.004;6.770;2022-07-01T12:14:54;0.88;;;0.70;;
54177;SDS011;40085;53.004;6.770;2022-07-01T12:17:21;3.03;;;1.02;;
54177;SDS011;40085;53.004;6.770;2022-07-01T12:19:48;0.65;;;0.60;;
54177;SDS011;40085;53.004;6.770;2022-07-01T12:22:16;1.92;;;0.90;;
54177;SDS011;40085;53.004;6.770;2022-07-01T12:24:46;1.67;;;1.00;;
54177;SDS011;40085;53.004;6.770;2022-07-01T12:27:13;0.90;;;0.85;;
54177;SDS011;40085;53.004;6.770;2022-07-01T12:32:10;1.17;;;0.90;;
54177;SDS011;40085;53.004;6.770;2022-07-01T12:34:41;0.63;;;0.57;;
54177;SDS011;40085;53.004;6.770;2022-07-01T12:37:13;2.17;;;0.82;;
54177;SDS011;40085;53.004;6.770;2022-07-01T12:39:54;0.30;;;0.30;;
54177;SDS011;40085;53.004;6.770;2022-07-01T12:42:34;1.08;;;0.60;;
54177;SDS011;40085;53.004;6.770;2022-07-01T12:45:08;1.40;;;0.70;;
54177;SDS011;40085;53.004;6.770;2022-07-01T12:47:37;0.63;;;0.50;;
54177;SDS011;40085;53.004;6.770;2022-07-01T12:50:11;1.48;;;0.70;;
54177;SDS011;40085;53.004;6.770;2022-07-01T12:52:37;0.52;;;0.40;;
54177;SDS011;40085;53.004;6.770;2022-07-01T12:55:16;0.88;;;0.60;;
54177;SDS011;40085;53.004;6.770;2022-07-01T12:57:43;1.73;;;0.40;;
54177;SDS011;40085;53.004;6.770;2022-07-01T13:00:11;0.55;;;0.50;;
54177;SDS011;40085;53.004;6.770;2022-07-01T13:02:37;0.60;;;0.52;;
54177;SDS011;40085;53.004;6.770;2022-07-01T13:05:03;0.50;;;0.50;;
54177;SDS011;40085;53.004;6.770;2022-07-01T13:07:29;0.95;;;0.63;;
54177;SDS011;40085;53.004;6.770;2022-07-01T13:09:54;0.45;;;0.40;;
54177;SDS011;40085;53.004;6.770;2022-07-01T13:12:20;0.45;;;0.38;;
54177;SDS011;40085;53.004;6.770;2022-07-01T13:14:47;0.30;;;0.30;;
54177;SDS011;40085;53.004;6.770;2022-07-01T13:17:12;3.00;;;0.43;;
54177;SDS011;40085;53.004;6.770;2022-07-01T13:19:38;0.68;;;0.30;;
54177;SDS011;40085;53.004;6.770;2022-07-01T13:22:04;1.17;;;0.52;;
54177;SDS011;40085;53.004;6.770;2022-07-01T13:24:30;0.93;;;0.40;;
54177;SDS011;40085;53.004;6.770;2022-07-01T13:26:55;0.95;;;0.30;;
54177;SDS011;40085;53.004;6.770;2022-07-01T13:29:21;1.20;;;0.45;;
54177;SDS011;40085;53.004;6.770;2022-07-01T13:31:47;1.48;;;0.40;;
54177;SDS011;40085;53.004;6.770;2022-07-01T13:34:13;0.13;;;0.13;;
54177;SDS011;40085;53.004;6.770;2022-07-01T13:36:39;1.98;;;0.35;;
54177;SDS011;40085;53.004;6.770;2022-07-01T13:39:04;1.40;;;0.43;;
54177;SDS011;40085;53.004;6.770;2022-07-01T13:41:30;0.32;;;0.20;;
54177;SDS011;40085;53.004;6.770;2022-07-01T13:43:56;1.00;;;0.28;;
54177;SDS011;40085;53.004;6.770;2022-07-01T13:46:21;0.20;;;0.20;;
54177;SDS011;40085;53.004;6.770;2022-07-01T13:48:47;0.55;;;0.30;;
54177;SDS011;40085;53.004;6.770;2022-07-01T13:51:13;0.30;;;0.30;;
54177;SDS011;40085;53.004;6.770;2022-07-01T13:53:38;1.33;;;0.28;;
54177;SDS011;40085;53.004;6.770;2022-07-01T13:56:05;0.60;;;0.20;;
54177;SDS011;40085;53.004;6.770;2022-07-01T13:58:30;0.70;;;0.32;;
54177;SDS011;40085;53.004;6.770;2022-07-01T14:00:56;1.52;;;0.32;;
54177;SDS011;40085;53.004;6.770;2022-07-01T14:03:22;1.08;;;0.43;;
54177;SDS011;40085;53.004;6.770;2022-07-01T14:05:48;2.33;;;0.40;;
54177;SDS011;40085;53.004;6.770;2022-07-01T14:08:13;1.35;;;0.52;;
54177;SDS011;40085;53.004;6.770;2022-07-01T14:10:40;0.57;;;0.47;;
54177;SDS011;40085;53.004;6.770;2022-07-01T14:13:06;3.83;;;0.30;;
54177;SDS011;40085;53.004;6.770;2022-07-01T14:15:32;0.85;;;0.45;;
54177;SDS011;40085;53.004;6.770;2022-07-01T14:18:00;1.02;;;0.35;;
54177;SDS011;40085;53.004;6.770;2022-07-01T14:20:26;0.20;;;0.20;;
54177;SDS011;40085;53.004;6.770;2022-07-01T14:22:52;0.75;;;0.40;;
54177;SDS011;40085;53.004;6.770;2022-07-01T14:25:18;0.63;;;0.52;;
54177;SDS011;40085;53.004;6.770;2022-07-01T14:27:45;1.23;;;0.45;;
54177;SDS011;40085;53.004;6.770;2022-07-01T14:30:11;0.35;;;0.32;;
54177;SDS011;40085;53.004;6.770;2022-07-01T14:32:37;0.63;;;0.40;;
54177;SDS011;40085;53.004;6.770;2022-07-01T14:35:04;1.58;;;0.30;;
54177;SDS011;40085;53.004;6.770;2022-07-01T14:37:30;0.47;;;0.30;;
54177;SDS011;40085;53.004;6.770;2022-07-01T14:39:56;0.40;;;0.40;;
54177;SDS011;40085;53.004;6.770;2022-07-01T14:42:24;1.33;;;0.40;;
54177;SDS011;40085;53.004;6.770;2022-07-01T14:44:50;3.33;;;0.50;;
54177;SDS011;40085;53.004;6.770;2022-07-01T14:47:17;1.38;;;0.80;;
54177;SDS011;40085;53.004;6.770;2022-07-01T14:49:43;0.47;;;0.40;;
54177;SDS011;40085;53.004;6.770;2022-07-01T14:52:10;0.77;;;0.60;;
54177;SDS011;40085;53.004;6.770;2022-07-01T14:54:37;0.60;;;0.40;;
54177;SDS011;40085;53.004;6.770;2022-07-01T14:57:03;2.20;;;0.73;;
54177;SDS011;40085;53.004;6.770;2022-07-01T14:59:29;0.38;;;0.38;;
54177;SDS011;40085;53.004;6.770;2022-07-01T15:01:55;4.35;;;0.60;;
54177;SDS011;40085;53.004;6.770;2022-07-01T15:04:25;2.92;;;0.52;;
54177;SDS011;40085;53.004;6.770;2022-07-01T15:06:51;0.93;;;0.52;;